Baker, West Virginia
Current Conditions -  °F | °C
As of 10:15 PM on Tuesday 25 Nov 2014 (Local Time) from KW99 Reporting Station
Clear Clear  
Wind Chill: 34°   Ceiling: Unl
Heat Index: 34°   Visibility: 10mi
Dew Point: 29°   Wind: 3mph
Humidity: 80%   Direction: 80°E
Pressure: 30.13"   Gusts: NA
Location:  39.04°N, 78.74°W
Report Text: KW99 260315Z AUTO 08003KT 10SM CLR 01/M02 A3013 RMK AO2 T00131018
Loading
Personal Weather Stations






























Interactive Weather Map New forecast layout! Learn more

10-Day Weather Forecast

Advertisements
Track Severe Weather on mobile